createdAt,value
2022-11-27T00:01:34.308Z,5.80
2022-11-27T00:04:01.196Z,5.60
2022-11-27T00:06:29.678Z,5.70
2022-11-27T00:08:59.419Z,5.80
2022-11-27T00:11:28.787Z,6.10
2022-11-27T00:13:56.322Z,6.20
2022-11-27T00:16:24.760Z,6.50
2022-11-27T00:18:52.171Z,6.70
2022-11-27T00:21:24.333Z,6.70
2022-11-27T00:23:52.879Z,6.50
2022-11-27T00:26:20.389Z,6.50
2022-11-27T00:28:47.533Z,6.60
2022-11-27T00:31:19.780Z,6.80
2022-11-27T00:33:47.230Z,6.70
2022-11-27T00:36:15.412Z,6.30
2022-11-27T00:38:42.873Z,6.40
2022-11-27T00:41:31.216Z,6.40
2022-11-27T00:43:58.476Z,6.50
2022-11-27T00:46:30.035Z,6.40
2022-11-27T00:48:59.314Z,6.40
2022-11-27T00:51:27.848Z,6.30
2022-11-27T00:53:55.926Z,6.00
2022-11-27T00:56:29.671Z,6.30
2022-11-27T00:58:56.929Z,6.30
2022-11-27T01:01:32.279Z,5.50
2022-11-27T01:04:01.462Z,5.80
2022-11-27T01:06:29.227Z,6.00
2022-11-27T01:08:57.374Z,6.10
2022-11-27T01:11:28.537Z,6.00
2022-11-27T01:14:02.414Z,6.20
2022-11-27T01:16:31.816Z,6.40
2022-11-27T01:19:00.905Z,6.70
2022-11-27T01:21:32.159Z,6.60
2022-11-27T01:24:00.322Z,6.60
2022-11-27T01:26:27.594Z,5.80
2022-11-27T01:28:56.074Z,5.40
2022-11-27T01:31:30.851Z,5.20
2022-11-27T01:34:01.728Z,5.70
2022-11-27T01:36:29.630Z,5.60
2022-11-27T01:38:56.733Z,5.60
2022-11-27T01:41:36.735Z,4.80
2022-11-27T01:44:23.342Z,4.80
2022-11-27T01:47:02.137Z,5.10
2022-11-27T01:49:38.822Z,4.90
2022-11-27T01:52:12.176Z,4.90
2022-11-27T01:54:51.094Z,4.80
2022-11-27T01:57:29.005Z,4.90
2022-11-27T01:59:59.152Z,5.30
2022-11-27T02:02:26.354Z,5.60
2022-11-27T02:04:54.862Z,5.80
2022-11-27T02:07:21.942Z,6.30
2022-11-27T02:09:48.705Z,6.60
2022-11-27T02:12:28.253Z,6.10
2022-11-27T02:15:25.243Z,6.10
2022-11-27T02:18:48.212Z,6.10
2022-11-27T02:21:49.774Z,6.40
2022-11-27T02:24:31.470Z,6.40
2022-11-27T02:27:05.554Z,6.40
2022-11-27T02:29:36.661Z,6.40
2022-11-27T02:32:29.601Z,6.60
2022-11-27T02:35:47.486Z,6.90
2022-11-27T02:39:15.688Z,6.90
2022-11-27T02:42:17.021Z,6.50
2022-11-27T02:44:55.568Z,6.50
2022-11-27T02:47:23.009Z,6.10
2022-11-27T02:49:52.661Z,6.30
2022-11-27T02:52:20.481Z,6.20
2022-11-27T02:54:50.123Z,6.20
2022-11-27T02:57:20.182Z,5.60
2022-11-27T02:59:48.054Z,5.00
2022-11-27T03:02:23.551Z,4.90
2022-11-27T03:04:55.104Z,4.70
2022-11-27T03:07:44.963Z,5.10
2022-11-27T03:10:31.178Z,5.20
2022-11-27T03:13:00.413Z,5.10
2022-11-27T03:15:39.164Z,5.50
2022-11-27T03:18:37.387Z,5.70
2022-11-27T03:21:28.700Z,5.60
2022-11-27T03:23:55.604Z,5.80
2022-11-27T03:26:22.372Z,5.50
2022-11-27T03:28:51.127Z,5.90
2022-11-27T03:31:18.093Z,6.00
2022-11-27T03:33:45.061Z,6.00
2022-11-27T03:36:19.120Z,5.50
2022-11-27T03:38:47.937Z,6.00
2022-11-27T03:41:43.796Z,5.40
2022-11-27T03:44:37.844Z,5.70
2022-11-27T03:47:49.668Z,5.90
2022-11-27T03:51:05.926Z,5.90
2022-11-27T03:53:56.763Z,5.90
2022-11-27T03:56:49.850Z,6.00
2022-11-27T03:59:42.462Z,5.60
2022-11-27T04:02:50.268Z,5.40
2022-11-27T04:05:20.959Z,6.00
2022-11-27T04:07:50.339Z,5.90
2022-11-27T04:10:18.702Z,5.80
2022-11-27T04:12:47.501Z,5.80
2022-11-27T04:15:17.007Z,6.10
2022-11-27T04:17:45.127Z,5.90
2022-11-27T04:20:27.964Z,6.20
2022-11-27T04:22:54.938Z,5.90
2022-11-27T04:25:22.300Z,6.00
2022-11-27T04:27:50.075Z,5.40
2022-11-27T04:30:18.233Z,5.50
2022-11-27T04:32:44.986Z,5.80
2022-11-27T04:35:11.820Z,5.80
2022-11-27T04:37:38.552Z,5.90
2022-11-27T04:40:06.571Z,5.90
2022-11-27T04:42:33.338Z,6.20
2022-11-27T04:45:00.181Z,6.40
2022-11-27T04:47:27.202Z,6.20
2022-11-27T04:49:53.914Z,5.90
2022-11-27T04:52:20.653Z,5.90
2022-11-27T04:54:47.365Z,5.70
2022-11-27T04:57:14.277Z,5.80
2022-11-27T04:59:41.112Z,5.90
2022-11-27T05:02:07.898Z,5.90
2022-11-27T05:04:34.681Z,6.40
2022-11-27T05:07:01.417Z,6.30
2022-11-27T05:09:28.391Z,6.00
2022-11-27T05:11:55.180Z,6.20
2022-11-27T05:14:24.066Z,6.00
2022-11-27T05:16:53.542Z,6.40
2022-11-27T05:19:22.971Z,6.50
2022-11-27T05:21:50.607Z,6.40
2022-11-27T05:24:19.661Z,6.40
2022-11-27T05:26:47.430Z,6.50
2022-11-27T05:29:14.910Z,6.60
2022-11-27T05:31:42.637Z,6.70
2022-11-27T05:34:10.085Z,7.00
2022-11-27T05:36:37.583Z,6.90
2022-11-27T05:39:07.164Z,6.90
2022-11-27T05:41:36.146Z,6.90
2022-11-27T05:44:03.493Z,6.30
2022-11-27T05:46:30.471Z,6.50
2022-11-27T05:48:57.280Z,6.30
2022-11-27T05:51:24.764Z,6.20
2022-11-27T05:53:51.623Z,6.00
2022-11-27T05:56:19.236Z,6.00
2022-11-27T05:58:48.007Z,6.20
2022-11-27T06:01:17.406Z,6.60
2022-11-27T06:03:44.433Z,6.60
2022-11-27T06:06:15.610Z,6.60
2022-11-27T06:08:43.357Z,6.80
2022-11-27T06:11:18.161Z,6.60
2022-11-27T06:13:46.510Z,6.50
2022-11-27T06:16:20.558Z,6.80
2022-11-27T06:18:54.023Z,6.70
2022-11-27T06:21:22.333Z,6.80
2022-11-27T06:23:49.679Z,6.70
2022-11-27T06:26:23.826Z,6.60
2022-11-27T06:28:51.010Z,6.70
2022-11-27T06:31:24.598Z,7.00
2022-11-27T06:33:53.994Z,7.30
2022-11-27T06:36:23.866Z,7.50
2022-11-27T06:38:50.605Z,7.40
2022-11-27T06:41:22.009Z,7.70
2022-11-27T06:43:48.656Z,7.80
2022-11-27T06:46:18.960Z,7.30
2022-11-27T06:48:48.552Z,7.40
2022-11-27T06:51:23.456Z,7.60
2022-11-27T06:53:51.264Z,7.30
2022-11-27T06:56:22.212Z,7.40
2022-11-27T06:58:55.878Z,7.20
2022-11-27T07:01:24.525Z,7.30
2022-11-27T07:03:51.554Z,7.20
2022-11-27T07:06:22.262Z,7.20
2022-11-27T07:08:49.529Z,7.30
2022-11-27T07:11:25.929Z,7.50
2022-11-27T07:13:57.006Z,7.20
2022-11-27T07:16:24.973Z,7.30
2022-11-27T07:18:55.417Z,7.10
2022-11-27T07:21:22.638Z,7.10
2022-11-27T07:23:49.567Z,7.20
2022-11-27T07:26:27.665Z,7.60
2022-11-27T07:28:54.553Z,7.00
2022-11-27T07:31:28.125Z,6.70
2022-11-27T07:33:55.872Z,6.80
2022-11-27T07:36:26.621Z,6.60
2022-11-27T07:38:53.471Z,6.40
2022-11-27T07:41:20.952Z,6.30
2022-11-27T07:43:48.155Z,6.00
2022-11-27T07:46:19.852Z,6.80
2022-11-27T07:48:47.193Z,7.10
2022-11-27T07:51:18.160Z,6.80
2022-11-27T07:53:45.282Z,5.70
2022-11-27T07:56:15.786Z,5.60
2022-11-27T07:58:43.018Z,5.30
2022-11-27T08:01:13.515Z,5.00
2022-11-27T08:03:40.784Z,4.80
2022-11-27T08:06:21.816Z,4.90
2022-11-27T08:08:49.634Z,4.80
2022-11-27T08:11:32.838Z,4.90
2022-11-27T08:14:05.804Z,5.00
2022-11-27T08:16:34.631Z,5.10
2022-11-27T08:19:02.037Z,5.30
2022-11-27T08:21:31.217Z,5.20
2022-11-27T08:23:58.154Z,5.00
2022-11-27T08:26:27.740Z,4.90
2022-11-27T08:28:55.830Z,5.00
2022-11-27T08:31:23.265Z,5.80
2022-11-27T08:33:50.513Z,6.20
2022-11-27T08:36:18.428Z,6.10
2022-11-27T08:38:46.589Z,5.80
2022-11-27T08:41:13.446Z,6.40
2022-11-27T08:43:40.248Z,6.00
2022-11-27T08:46:07.901Z,6.00
2022-11-27T08:48:35.637Z,6.10
2022-11-27T08:51:08.209Z,6.30
2022-11-27T08:53:37.471Z,5.80
2022-11-27T08:56:19.815Z,6.40
2022-11-27T08:58:47.239Z,6.40
2022-11-27T09:01:26.426Z,6.50
2022-11-27T09:03:53.417Z,7.00
2022-11-27T09:06:24.024Z,6.20
2022-11-27T09:08:51.439Z,5.60
2022-11-27T09:11:20.634Z,5.80
2022-11-27T09:13:48.345Z,6.00
2022-11-27T09:16:18.921Z,5.60
2022-11-27T09:18:47.819Z,5.60
2022-11-27T09:21:17.110Z,6.50
2022-11-27T09:23:44.254Z,6.20
2022-11-27T09:26:14.770Z,6.90
2022-11-27T09:28:43.069Z,7.10
2022-11-27T09:31:13.240Z,7.60
2022-11-27T09:33:41.751Z,7.50
2022-11-27T09:36:13.099Z,8.00
2022-11-27T09:38:40.740Z,7.30
2022-11-27T09:41:44.736Z,7.50
2022-11-27T09:45:08.671Z,7.20
2022-11-27T09:47:49.828Z,7.00
2022-11-27T09:50:26.452Z,6.90
2022-11-27T09:53:19.810Z,6.50
2022-11-27T09:55:50.239Z,6.30
2022-11-27T09:59:03.687Z,6.40
2022-11-27T10:01:42.044Z,6.40
2022-11-27T10:04:17.102Z,6.80
2022-11-27T10:07:42.035Z,6.60
2022-11-27T10:11:02.771Z,6.30
2022-11-27T10:14:08.065Z,6.20
2022-11-27T10:16:44.970Z,7.10
2022-11-27T10:19:46.672Z,7.30
2022-11-27T10:22:34.077Z,7.30
2022-11-27T10:25:20.584Z,7.40
2022-11-27T10:28:31.412Z,6.60
2022-11-27T10:31:12.161Z,6.90
2022-11-27T10:33:46.453Z,6.20
2022-11-27T10:36:26.167Z,6.60
2022-11-27T10:38:55.371Z,6.60
2022-11-27T10:44:54.664Z,6.90
2022-11-27T10:47:24.143Z,6.60
2022-11-27T10:49:51.466Z,6.50
2022-11-27T10:52:20.207Z,6.60
2022-11-27T10:54:56.365Z,6.90
2022-11-27T10:57:34.900Z,7.20
2022-11-27T11:00:24.941Z,8.10
2022-11-27T11:03:05.827Z,8.30
2022-11-27T11:05:51.049Z,8.50
2022-11-27T11:08:21.594Z,8.80
2022-11-27T11:11:06.717Z,9.00
2022-11-27T11:13:47.500Z,8.80
2022-11-27T11:16:24.001Z,8.70
2022-11-27T11:18:54.321Z,9.00
2022-11-27T11:21:38.252Z,9.60
2022-11-27T11:24:06.943Z,9.00
2022-11-27T11:26:45.178Z,9.70
2022-11-27T11:29:37.471Z,10.40
2022-11-27T11:32:14.245Z,10.20
2022-11-27T11:34:47.857Z,9.90
2022-11-27T11:37:35.554Z,10.10
2022-11-27T11:40:19.876Z,9.90
2022-11-27T11:42:58.755Z,10.40
2022-11-27T11:45:32.855Z,10.60
2022-11-27T11:48:15.503Z,10.50
2022-11-27T11:51:12.886Z,11.20
2022-11-27T11:53:45.348Z,10.60
2022-11-27T11:56:45.204Z,10.20
2022-11-27T11:59:50.484Z,9.90
2022-11-27T12:02:56.666Z,9.90
2022-11-27T12:06:08.852Z,10.00
2022-11-27T12:08:51.606Z,9.60
2022-11-27T12:11:45.580Z,9.20
2022-11-27T12:14:25.810Z,9.20
2022-11-27T12:17:28.697Z,9.20
2022-11-27T12:20:21.897Z,9.40
2022-11-27T12:23:18.134Z,9.40
2022-11-27T12:26:07.310Z,9.40
2022-11-27T12:29:25.182Z,9.80
2022-11-27T12:32:26.705Z,9.80
2022-11-27T12:35:01.818Z,9.90
2022-11-27T12:37:53.422Z,9.60
2022-11-27T12:40:38.753Z,9.50
2022-11-27T12:43:27.315Z,9.30
2022-11-27T12:46:09.885Z,9.60
2022-11-27T12:48:46.884Z,9.70
2022-11-27T12:51:24.682Z,10.00
2022-11-27T12:54:11.097Z,9.80
2022-11-27T12:56:58.979Z,9.90
2022-11-27T12:59:58.487Z,9.80
2022-11-27T13:02:46.607Z,9.80
2022-11-27T13:05:22.947Z,10.00
2022-11-27T13:08:15.526Z,10.00
2022-11-27T13:10:51.707Z,10.40
2022-11-27T13:14:15.080Z,10.70
2022-11-27T13:17:04.176Z,10.20
2022-11-27T13:20:01.871Z,10.50
2022-11-27T13:22:35.784Z,10.50
2022-11-27T13:25:25.293Z,10.80
2022-11-27T13:30:44.325Z,11.20
2022-11-27T13:33:35.288Z,11.00
2022-11-27T13:36:05.319Z,11.30
2022-11-27T13:38:34.194Z,11.40
2022-11-27T13:41:05.536Z,11.30
2022-11-27T13:43:43.798Z,11.50
2022-11-27T13:46:13.100Z,11.40
2022-11-27T13:48:47.575Z,11.30
2022-11-27T13:51:28.328Z,11.30
2022-11-27T13:54:15.801Z,10.90
2022-11-27T13:56:42.874Z,10.50
2022-11-27T13:59:22.411Z,10.70
2022-11-27T14:02:09.080Z,10.90
2022-11-27T14:04:54.352Z,11.10
2022-11-27T14:07:24.057Z,11.20
2022-11-27T14:09:56.405Z,11.30
2022-11-27T14:12:30.736Z,11.00
2022-11-27T14:15:17.660Z,11.10
2022-11-27T14:17:47.809Z,11.00
2022-11-27T14:20:17.770Z,10.60
2022-11-27T14:23:12.469Z,11.00
2022-11-27T14:25:40.328Z,11.20
2022-11-27T14:28:21.318Z,11.00
2022-11-27T14:30:52.069Z,11.10
2022-11-27T14:33:26.844Z,11.30
2022-11-27T14:36:00.599Z,11.40
2022-11-27T14:38:29.631Z,11.40
2022-11-27T14:41:20.204Z,11.10
2022-11-27T14:43:47.243Z,11.00
2022-11-27T14:46:20.546Z,11.20
2022-11-27T14:48:54.711Z,11.30
2022-11-27T14:51:24.480Z,11.30
2022-11-27T14:53:59.259Z,11.10
2022-11-27T14:56:35.682Z,11.20
2022-11-27T14:59:03.436Z,11.30
2022-11-27T15:01:34.317Z,11.00
2022-11-27T15:04:05.758Z,11.10
2022-11-27T15:06:40.209Z,11.10
2022-11-27T15:09:30.763Z,11.20
2022-11-27T15:12:04.346Z,11.10
2022-11-27T15:14:31.279Z,10.00
2022-11-27T15:16:58.577Z,9.50
2022-11-27T15:19:33.960Z,9.60
2022-11-27T15:22:01.555Z,9.70
2022-11-27T15:24:36.994Z,9.50
2022-11-27T15:27:18.046Z,10.00
2022-11-27T15:30:07.642Z,10.50
2022-11-27T15:32:53.617Z,10.50
2022-11-27T15:35:29.826Z,10.20
2022-11-27T15:37:58.080Z,10.50
2022-11-27T15:40:37.134Z,10.80
2022-11-27T15:43:15.090Z,10.70
2022-11-27T15:45:44.141Z,10.40
2022-11-27T15:48:19.236Z,10.50
2022-11-27T15:50:51.404Z,10.50
2022-11-27T15:53:18.916Z,10.50
2022-11-27T15:55:45.675Z,10.40
2022-11-27T15:58:12.436Z,10.50
2022-11-27T16:00:40.468Z,10.50
2022-11-27T16:03:07.287Z,10.50
2022-11-27T16:05:34.015Z,10.30
2022-11-27T16:08:00.935Z,10.50
2022-11-27T16:10:27.792Z,10.50
2022-11-27T16:12:55.422Z,10.60
2022-11-27T16:15:23.536Z,10.70
2022-11-27T16:17:51.150Z,10.80
2022-11-27T16:20:17.916Z,10.20
2022-11-27T16:22:44.859Z,10.40
2022-11-27T16:25:11.588Z,10.60
2022-11-27T16:27:38.437Z,9.70
2022-11-27T16:30:06.214Z,9.60
2022-11-27T16:32:33.026Z,9.70
2022-11-27T16:34:59.761Z,10.20
2022-11-27T16:37:26.531Z,10.40
2022-11-27T16:39:53.247Z,10.40
2022-11-27T16:42:19.982Z,10.50
2022-11-27T16:44:47.411Z,10.20
2022-11-27T16:47:15.089Z,10.30
2022-11-27T16:49:42.069Z,10.50
2022-11-27T16:52:11.074Z,10.50
2022-11-27T16:54:38.233Z,10.20
2022-11-27T16:57:05.187Z,10.10
2022-11-27T16:59:32.050Z,10.10
2022-11-27T17:01:58.889Z,10.00
2022-11-27T17:04:25.700Z,9.90
2022-11-27T17:06:52.497Z,10.10
2022-11-27T17:09:20.266Z,9.90
2022-11-27T17:11:49.060Z,10.00
2022-11-27T17:14:16.707Z,10.20
2022-11-27T17:16:43.785Z,10.20
2022-11-27T17:19:13.558Z,10.10
2022-11-27T17:21:40.886Z,9.90
2022-11-27T17:24:15.292Z,9.70
2022-11-27T17:26:43.986Z,10.30
2022-11-27T17:29:13.385Z,10.30
2022-11-27T17:31:40.320Z,10.40
2022-11-27T17:34:08.058Z,10.10
2022-11-27T17:36:37.490Z,9.80
2022-11-27T17:39:05.628Z,10.10
2022-11-27T17:41:32.999Z,10.00
2022-11-27T17:43:59.862Z,10.00
2022-11-27T17:46:28.755Z,10.10
2022-11-27T17:48:58.904Z,10.20
2022-11-27T17:51:27.389Z,10.10
2022-11-27T17:53:54.215Z,10.10
2022-11-27T17:56:21.446Z,9.70
2022-11-27T17:58:48.390Z,9.90
2022-11-27T18:01:19.546Z,10.20
2022-11-27T18:03:47.314Z,10.10
2022-11-27T18:06:17.769Z,9.90
2022-11-27T18:08:46.669Z,9.80
2022-11-27T18:11:20.842Z,9.90
2022-11-27T18:13:48.566Z,9.90
2022-11-27T18:16:23.604Z,9.90
2022-11-27T18:18:51.376Z,9.70
2022-11-27T18:21:20.602Z,9.90
2022-11-27T18:24:21.497Z,10.00
2022-11-27T18:27:06.515Z,10.20
2022-11-27T18:29:23.511Z,10.30
2022-11-27T18:31:51.028Z,10.20
2022-11-27T18:34:18.178Z,10.10
2022-11-27T18:36:45.843Z,10.10
2022-11-27T18:39:13.200Z,10.20
2022-11-27T18:41:40.840Z,10.20
2022-11-27T18:44:07.680Z,10.30
2022-11-27T18:46:34.657Z,10.40
2022-11-27T18:49:01.551Z,10.40
2022-11-27T18:51:28.290Z,10.30
2022-11-27T18:53:56.398Z,10.20
2022-11-27T18:56:27.481Z,10.20
2022-11-27T18:58:55.220Z,10.10
2022-11-27T19:01:27.228Z,10.00
2022-11-27T19:03:54.587Z,9.90
2022-11-27T19:06:24.664Z,9.70
2022-11-27T19:08:51.702Z,9.50
2022-11-27T19:11:23.442Z,9.70
2022-11-27T19:13:53.554Z,10.10
2022-11-27T19:16:31.223Z,10.10
2022-11-27T19:18:59.980Z,10.00
2022-11-27T19:21:29.738Z,9.60
2022-11-27T19:23:59.280Z,9.70
2022-11-27T19:26:35.601Z,9.30
2022-11-27T19:29:07.746Z,9.70
2022-11-27T19:31:37.608Z,9.40
2022-11-27T19:34:06.205Z,9.30
2022-11-27T19:36:35.597Z,9.60
2022-11-27T19:39:15.578Z,9.20
2022-11-27T19:41:43.292Z,9.20
2022-11-27T19:44:12.641Z,9.60
2022-11-27T19:46:40.857Z,9.60
2022-11-27T19:49:14.565Z,9.30
2022-11-27T19:51:41.932Z,9.20
2022-11-27T19:54:12.962Z,9.30
2022-11-27T19:56:42.141Z,9.50
2022-11-27T19:59:10.844Z,9.30
2022-11-27T20:01:40.040Z,9.20
2022-11-27T20:04:07.743Z,9.30
2022-11-27T20:06:34.490Z,9.50
2022-11-27T20:09:05.244Z,9.80
2022-11-27T20:11:34.850Z,9.30
2022-11-27T20:14:04.209Z,9.40
2022-11-27T20:16:32.037Z,9.60
2022-11-27T20:18:58.901Z,9.70
2022-11-27T20:21:26.811Z,9.80
2022-11-27T20:23:55.260Z,9.30
2022-11-27T20:26:25.969Z,9.10
2022-11-27T20:28:54.330Z,9.30
2022-11-27T20:31:25.548Z,9.40
2022-11-27T20:33:55.588Z,9.50
2022-11-27T20:36:23.457Z,9.20
2022-11-27T20:38:52.103Z,8.70
2022-11-27T20:41:20.724Z,9.10
2022-11-27T20:43:48.063Z,8.60
2022-11-27T20:46:16.435Z,8.30
2022-11-27T20:48:47.115Z,8.80
2022-11-27T20:51:17.950Z,8.80
2022-11-27T20:53:47.054Z,8.80
2022-11-27T20:56:16.522Z,8.80
2022-11-27T20:58:45.122Z,8.80
2022-11-27T21:01:24.676Z,9.10
2022-11-27T21:03:53.470Z,9.00
2022-11-27T21:06:25.739Z,8.90
2022-11-27T21:08:53.402Z,9.30
2022-11-27T21:11:25.238Z,9.00
2022-11-27T21:14:01.924Z,9.20
2022-11-27T21:16:31.976Z,9.20
2022-11-27T21:19:06.512Z,9.00
2022-11-27T21:21:34.419Z,8.70
2022-11-27T21:24:01.480Z,8.70
2022-11-27T21:26:28.645Z,9.10
2022-11-27T21:28:55.634Z,9.40
2022-11-27T21:31:25.686Z,9.60
2022-11-27T21:34:03.612Z,9.50
2022-11-27T21:36:34.986Z,9.70
2022-11-27T21:39:02.700Z,9.70
2022-11-27T21:41:31.576Z,9.80
2022-11-27T21:44:01.034Z,9.90
2022-11-27T21:46:29.074Z,9.80
2022-11-27T21:48:59.536Z,9.80
2022-11-27T21:51:29.237Z,9.90
2022-11-27T21:53:58.023Z,9.30
2022-11-27T21:56:27.738Z,9.80
2022-11-27T22:00:19.959Z,9.80
2022-11-27T22:03:35.016Z,9.50
2022-11-27T22:10:33.567Z,9.90
2022-11-27T22:20:28.446Z,9.80
2022-11-27T22:26:36.657Z,9.70
2022-11-27T22:29:03.638Z,9.90
2022-11-27T22:31:32.911Z,9.90
2022-11-27T22:34:00.658Z,10.10
2022-11-27T22:36:35.233Z,10.10
2022-11-27T22:39:06.442Z,10.00
2022-11-27T22:41:37.054Z,10.10
2022-11-27T22:44:13.786Z,10.20
2022-11-27T22:46:42.155Z,9.90
2022-11-27T22:49:13.248Z,9.50
2022-11-27T22:51:40.630Z,9.30
2022-11-27T22:54:11.169Z,8.80
2022-11-27T22:56:38.077Z,8.70
2022-11-27T22:59:35.188Z,9.10
2022-11-27T23:01:53.678Z,9.00
2022-11-27T23:04:20.398Z,9.10
2022-11-27T23:06:48.441Z,9.10
2022-11-27T23:09:17.997Z,9.10
2022-11-27T23:11:46.270Z,8.80
2022-11-27T23:14:13.444Z,8.90
2022-11-27T23:16:40.276Z,8.90
2022-11-27T23:19:07.047Z,9.00
2022-11-27T23:21:37.252Z,9.00
2022-11-27T23:24:05.869Z,9.30
2022-11-27T23:26:32.767Z,9.40
2022-11-27T23:28:59.689Z,9.50
2022-11-27T23:31:31.053Z,9.70
2022-11-27T23:34:01.593Z,9.60
2022-11-27T23:36:30.313Z,9.50
2022-11-27T23:38:59.734Z,9.80
2022-11-27T23:41:26.858Z,9.90
2022-11-27T23:43:54.982Z,9.70
2022-11-27T23:46:26.269Z,9.90
2022-11-27T23:48:57.545Z,9.70
2022-11-27T23:51:28.083Z,9.80
2022-11-27T23:53:55.076Z,9.80
2022-11-27T23:56:25.544Z,9.60
2022-11-27T23:58:53.946Z,9.50
